Details From KINW - WINSLOW LINDBERGH RGNL
To KRQE - WINDOW ROCK
Flight Number -
Tags generated
Created
Modified
Stats Distance 92 nm / 170 km
Max Altitude 7,400 ft / 2,256 m
Waypoints 3
Social Downloads 0
Likes 0
Share VATSIM

Download

Looking for another format? Having issues loading an existing format? Contact us
Advertisement - Login to hide

Notes

Basic altitude profile: - Ascent Rate: 500ft/min - Ascent Speed: 100kts - Cruise Altitude: 5000ft - Cruise Speed: 120kts - Descent Rate: 700ft/min - Descent Speed: 100kts Options: - Use NATs: yes - Use PACOTS: yes - Use low airways: yes - Use high airways: yes

Route

KINW BUTTE KRQE

ID Type Via Altitude (ft/m) Position (lat/lon) Dist (leg/tot) Name
O KINW APT - 0 / 0 35.02159 / -110.72455 - / 0 nm WINSLOW LINDBERGH RGNL
BUTTE FIX - 7,400 / 2,256 35.28476 / -110.45021 20 / 20 nm
O KRQE APT - 0 / 0 35.65207 / -109.06738 71 / 91 nm WINDOW ROCK

Altitude Profile

Advertisement - Login to hide

KINW

Details ICAO KINW (INW)
Name WINSLOW LINDBERGH RGNL
Region United States
Timezone America/Phoenix (UTC-7.0)
Stats Elevation 4,941 ft / 1,506 m (AMSL)
Location 35.021600° -110.725000°
Runways 3
Magnetic Variation 10.052° E

METAR

KINW 160456Z AUTO 06015G19KT 10SM -RA BKN045 OVC055 09/M02 A3018 RMK AO2 RAB37 SLP200 P0000 T00891017

Decode

TAF

TAF KINW 152337Z 1600/1624 09008KT P6SM BKN070 FM160200 34009KT P6SM OVC040 TEMPO 1606/1610 5SM -SHRA OVC035 FM161000 35008KT 5SM -SHRA OVC030

Decode

Departure Runways

ID Width Length Bearing (true/mag) Surface Threshold Overrun Markings Lighting
04 150 ft / 46 m 7,491 ft / 2,283 m 58.49° / 48.44° ASPHALT 0 ft / 0 m 0 ft / 0 m APP EDGE THRESHOLD
11 150 ft / 46 m 7,092 ft / 2,162 m 119.77° / 109.72° ASPHALT 190 ft / 58 m 398 ft / 121 m APP EDGE THRESHOLD REIL-OMNI
17 150 ft / 46 m 6,102 ft / 1,860 m 184.66° / 174.61° ASPHALT 0 ft / 0 m 0 ft / 0 m APP
22 150 ft / 46 m 7,491 ft / 2,283 m 238.50° / 228.45° ASPHALT 1,258 ft / 383 m 0 ft / 0 m APP EDGE THRESHOLD REIL-OMNI
29 150 ft / 46 m 7,092 ft / 2,162 m 299.79° / 289.73° ASPHALT 373 ft / 114 m 0 ft / 0 m APP EDGE THRESHOLD
35 150 ft / 46 m 6,102 ft / 1,860 m 4.66° / 354.60° ASPHALT 0 ft / 0 m 0 ft / 0 m APP

KRQE

Details ICAO KRQE
Name WINDOW ROCK
Region United States
Timezone America/Denver (UTC-6.0)
Stats Elevation 6,742 ft / 2,055 m (AMSL)
Location 35.652100° -109.067000°
Runways 1
Magnetic Variation 9.531° E

METAR

KRQE 160453Z AUTO VRB06KT 6SM HZ OVC037 04/M03 A3024 RMK AO2 SLP212 T00391028 TSNO

Decode

TAF

Not found

Destination Runways

ID Width Length Bearing (true/mag) Surface Threshold Overrun Markings Lighting
02 75 ft / 23 m 7,006 ft / 2,135 m 33.93° / 24.40° ASPHALT 0 ft / 0 m 0 ft / 0 m APP EDGE THRESHOLD REIL-OMNI
20 75 ft / 23 m 7,006 ft / 2,135 m 213.94° / 204.41° ASPHALT 0 ft / 0 m 0 ft / 0 m APP EDGE THRESHOLD

Popular Alternatives